This is the latest recevied weather packets stored in our database for station/object SQ8AQL-16. If no packets are shown the sender has not sent any weather packets the latest 10 day(s).
| Time | Temp. | Humidity | Pressure | Rain* | Wind** | Luminosity | Snow |
|---|---|---|---|---|---|---|---|
| 1777818716 | 30.56° C | 17% | 1018.6 hPa | - | - | 445 W/m² | - |
| 1777817815 | 30.56° C | 16% | 1018.8 hPa | - | - | 478 W/m² | - |
| 1777816013 | 30° C | 16% | 1019.2 hPa | - | - | 552 W/m² | - |
| 1777815111 | 29.44° C | 16% | 1019.3 hPa | - | - | 643 W/m² | - |
| 1777814210 | 29.44° C | 16% | 1019.5 hPa | - | - | 643 W/m² | - |
| 1777810606 | 30° C | 19% | 1020.1 hPa | - | - | 881 W/m² | - |
| 1777809705 | 30° C | 19% | 1020.2 hPa | - | - | 881 W/m² | - |
| 1777808804 | 30° C | 19% | 1020.4 hPa | - | - | 881 W/m² | - |
| 1777807903 | 30° C | 19% | 1020.6 hPa | - | - | 881 W/m² | - |
| 1777806099 | 29.44° C | 21% | 1020.9 hPa | - | - | 935 W/m² | - |
| 1777803392 | 26.67° C | 24% | 1021.5 hPa | - | - | 747 W/m² | - |
| 1777802490 | 26.67° C | 24% | 1021.6 hPa | - | - | 742 W/m² | - |
| 1777800688 | 20.56° C | 32% | 1022 hPa | - | - | 40 W/m² | - |
| 1777799786 | 20.56° C | 32% | 1022.1 hPa | - | - | 40 W/m² | - |
| 1777798885 | 21.67° C | 29% | 1022.1 hPa | - | - | 2 W/m² | - |
| 1777797984 | 21.67° C | 29% | 1022.4 hPa | - | - | 2 W/m² | - |
| 1777797083 | 21.67° C | 29% | 1022.5 hPa | - | - | 2 W/m² | - |
| 1777796182 | 21.67° C | 29% | 1022.5 hPa | - | - | 2 W/m² | - |
| 1777795281 | 21.67° C | 30% | 1022.6 hPa | - | - | 2 W/m² | - |
| 1777794381 | 21.67° C | 30% | 1022.5 hPa | - | - | 2 W/m² | - |
| 1777793479 | 21.67° C | 30% | 1022.5 hPa | - | - | 2 W/m² | - |
| 1777792579 | 21.67° C | 30% | 1022.6 hPa | - | - | 2 W/m² | - |
| 1777791678 | 21.67° C | 31% | 1022.5 hPa | - | - | 2 W/m² | - |
| 1777790777 | 21.67° C | 31% | 1022.5 hPa | - | - | 2 W/m² | - |
| 1777789876 | 21.11° C | 32% | 1022.5 hPa | - | - | 1 W/m² | - |
* Rain since midnight (hover to see other rain measurements)
** Current wind speed in m/s (hover to see current wind gust speed)